sensor_id;sensor_type;location;lat;lon;timestamp;P1;durP1;ratioP1;P2;durP2;ratioP2
73170;SDS011;61381;50.118;19.962;2023-04-29T00:01:18;20.70;;;9.35;;
73170;SDS011;61381;50.118;19.962;2023-04-29T00:06:21;18.55;;;9.05;;
73170;SDS011;61381;50.118;19.962;2023-04-29T00:11:22;19.30;;;9.13;;
73170;SDS011;61381;50.118;19.962;2023-04-29T00:16:23;16.90;;;8.52;;
73170;SDS011;61381;50.118;19.962;2023-04-29T00:21:25;15.57;;;8.43;;
73170;SDS011;61381;50.118;19.962;2023-04-29T00:26:26;21.90;;;11.05;;
73170;SDS011;61381;50.118;19.962;2023-04-29T00:36:29;15.75;;;8.27;;
73170;SDS011;61381;50.118;19.962;2023-04-29T00:41:30;22.73;;;10.63;;
73170;SDS011;61381;50.118;19.962;2023-04-29T00:51:34;26.80;;;12.60;;
73170;SDS011;61381;50.118;19.962;2023-04-29T00:56:36;18.23;;;9.13;;
73170;SDS011;61381;50.118;19.962;2023-04-29T01:01:39;15.77;;;8.30;;
73170;SDS011;61381;50.118;19.962;2023-04-29T01:06:47;17.00;;;9.02;;
73170;SDS011;61381;50.118;19.962;2023-04-29T01:12:01;16.50;;;9.60;;
73170;SDS011;61381;50.118;19.962;2023-04-29T01:17:09;19.42;;;9.50;;
73170;SDS011;61381;50.118;19.962;2023-04-29T01:22:12;17.17;;;8.85;;
73170;SDS011;61381;50.118;19.962;2023-04-29T01:27:20;20.42;;;10.68;;
73170;SDS011;61381;50.118;19.962;2023-04-29T01:32:30;20.15;;;10.63;;
73170;SDS011;61381;50.118;19.962;2023-04-29T01:37:44;18.45;;;9.35;;
73170;SDS011;61381;50.118;19.962;2023-04-29T01:42:54;17.30;;;9.48;;
73170;SDS011;61381;50.118;19.962;2023-04-29T01:48:01;18.00;;;8.82;;
73170;SDS011;61381;50.118;19.962;2023-04-29T01:53:03;18.52;;;9.20;;
73170;SDS011;61381;50.118;19.962;2023-04-29T02:03:06;14.85;;;7.78;;
73170;SDS011;61381;50.118;19.962;2023-04-29T02:08:07;18.00;;;8.93;;
73170;SDS011;61381;50.118;19.962;2023-04-29T02:13:10;21.83;;;10.95;;
73170;SDS011;61381;50.118;19.962;2023-04-29T02:18:11;27.58;;;12.90;;
73170;SDS011;61381;50.118;19.962;2023-04-29T02:23:12;20.77;;;10.02;;
73170;SDS011;61381;50.118;19.962;2023-04-29T02:28:14;19.02;;;9.68;;
73170;SDS011;61381;50.118;19.962;2023-04-29T02:33:15;15.90;;;8.70;;
73170;SDS011;61381;50.118;19.962;2023-04-29T02:38:16;17.50;;;10.00;;
73170;SDS011;61381;50.118;19.962;2023-04-29T02:43:18;20.15;;;10.25;;
73170;SDS011;61381;50.118;19.962;2023-04-29T02:48:20;19.98;;;11.63;;
73170;SDS011;61381;50.118;19.962;2023-04-29T02:53:21;36.97;;;14.63;;
73170;SDS011;61381;50.118;19.962;2023-04-29T02:58:23;29.42;;;13.52;;
73170;SDS011;61381;50.118;19.962;2023-04-29T03:03:24;21.73;;;11.60;;
73170;SDS011;61381;50.118;19.962;2023-04-29T03:08:25;16.98;;;10.82;;
73170;SDS011;61381;50.118;19.962;2023-04-29T03:13:28;16.25;;;9.07;;
73170;SDS011;61381;50.118;19.962;2023-04-29T03:18:29;15.75;;;10.70;;
73170;SDS011;61381;50.118;19.962;2023-04-29T03:23:30;18.92;;;9.93;;
73170;SDS011;61381;50.118;19.962;2023-04-29T03:28:32;18.98;;;9.93;;
73170;SDS011;61381;50.118;19.962;2023-04-29T03:33:33;20.70;;;10.98;;
73170;SDS011;61381;50.118;19.962;2023-04-29T03:38:34;22.95;;;12.27;;
73170;SDS011;61381;50.118;19.962;2023-04-29T03:43:37;19.13;;;11.52;;
73170;SDS011;61381;50.118;19.962;2023-04-29T03:48:38;21.88;;;10.82;;
73170;SDS011;61381;50.118;19.962;2023-04-29T03:53:39;17.73;;;10.35;;
73170;SDS011;61381;50.118;19.962;2023-04-29T03:58:41;21.20;;;12.10;;
73170;SDS011;61381;50.118;19.962;2023-04-29T04:03:42;21.90;;;11.23;;
73170;SDS011;61381;50.118;19.962;2023-04-29T04:08:43;19.50;;;11.40;;
73170;SDS011;61381;50.118;19.962;2023-04-29T04:13:45;18.67;;;11.40;;
73170;SDS011;61381;50.118;19.962;2023-04-29T04:18:46;23.88;;;13.57;;
73170;SDS011;61381;50.118;19.962;2023-04-29T04:23:47;24.00;;;13.20;;
73170;SDS011;61381;50.118;19.962;2023-04-29T04:28:50;28.98;;;14.23;;
73170;SDS011;61381;50.118;19.962;2023-04-29T04:33:51;29.20;;;14.27;;
73170;SDS011;61381;50.118;19.962;2023-04-29T04:38:52;30.63;;;14.75;;
73170;SDS011;61381;50.118;19.962;2023-04-29T04:43:54;26.95;;;14.20;;
73170;SDS011;61381;50.118;19.962;2023-04-29T04:48:55;27.50;;;14.80;;
73170;SDS011;61381;50.118;19.962;2023-04-29T04:53:56;24.77;;;13.68;;
73170;SDS011;61381;50.118;19.962;2023-04-29T04:58:59;21.38;;;12.57;;
73170;SDS011;61381;50.118;19.962;2023-04-29T05:04:00;25.92;;;14.82;;
73170;SDS011;61381;50.118;19.962;2023-04-29T05:09:01;22.98;;;12.45;;
73170;SDS011;61381;50.118;19.962;2023-04-29T05:14:03;26.90;;;13.95;;
73170;SDS011;61381;50.118;19.962;2023-04-29T05:19:04;24.42;;;14.43;;
73170;SDS011;61381;50.118;19.962;2023-04-29T05:24:05;26.30;;;15.57;;
73170;SDS011;61381;50.118;19.962;2023-04-29T05:29:07;27.30;;;13.85;;
73170;SDS011;61381;50.118;19.962;2023-04-29T05:34:09;25.15;;;14.07;;
73170;SDS011;61381;50.118;19.962;2023-04-29T05:39:09;27.05;;;12.50;;
73170;SDS011;61381;50.118;19.962;2023-04-29T05:44:12;28.65;;;15.35;;
73170;SDS011;61381;50.118;19.962;2023-04-29T05:49:13;28.60;;;13.43;;
73170;SDS011;61381;50.118;19.962;2023-04-29T05:54:14;23.05;;;12.77;;
73170;SDS011;61381;50.118;19.962;2023-04-29T05:59:16;25.33;;;13.23;;
73170;SDS011;61381;50.118;19.962;2023-04-29T06:04:18;21.77;;;12.77;;
73170;SDS011;61381;50.118;19.962;2023-04-29T06:09:19;21.17;;;12.00;;
73170;SDS011;61381;50.118;19.962;2023-04-29T06:14:21;20.95;;;10.82;;
73170;SDS011;61381;50.118;19.962;2023-04-29T06:19:22;20.85;;;12.32;;
73170;SDS011;61381;50.118;19.962;2023-04-29T06:24:24;19.55;;;11.73;;
73170;SDS011;61381;50.118;19.962;2023-04-29T06:29:26;18.75;;;10.48;;
73170;SDS011;61381;50.118;19.962;2023-04-29T06:34:27;16.60;;;10.07;;
73170;SDS011;61381;50.118;19.962;2023-04-29T06:39:28;17.73;;;9.85;;
73170;SDS011;61381;50.118;19.962;2023-04-29T06:44:30;15.93;;;10.63;;
73170;SDS011;61381;50.118;19.962;2023-04-29T06:49:31;17.95;;;11.07;;
73170;SDS011;61381;50.118;19.962;2023-04-29T06:54:32;14.10;;;9.15;;
73170;SDS011;61381;50.118;19.962;2023-04-29T06:59:35;16.67;;;9.52;;
73170;SDS011;61381;50.118;19.962;2023-04-29T07:04:36;20.80;;;11.88;;
73170;SDS011;61381;50.118;19.962;2023-04-29T07:09:37;22.23;;;11.75;;
73170;SDS011;61381;50.118;19.962;2023-04-29T07:14:39;21.60;;;10.68;;
73170;SDS011;61381;50.118;19.962;2023-04-29T07:19:40;11.52;;;7.55;;
73170;SDS011;61381;50.118;19.962;2023-04-29T07:24:41;12.57;;;7.30;;
73170;SDS011;61381;50.118;19.962;2023-04-29T07:29:44;10.52;;;6.38;;
73170;SDS011;61381;50.118;19.962;2023-04-29T07:34:45;12.13;;;6.85;;
73170;SDS011;61381;50.118;19.962;2023-04-29T07:39:46;9.95;;;7.10;;
73170;SDS011;61381;50.118;19.962;2023-04-29T07:44:48;8.40;;;5.20;;
73170;SDS011;61381;50.118;19.962;2023-04-29T07:49:49;8.32;;;5.38;;
73170;SDS011;61381;50.118;19.962;2023-04-29T07:54:50;7.18;;;5.22;;
73170;SDS011;61381;50.118;19.962;2023-04-29T07:59:53;7.72;;;4.53;;
73170;SDS011;61381;50.118;19.962;2023-04-29T08:04:54;8.73;;;5.05;;
73170;SDS011;61381;50.118;19.962;2023-04-29T08:09:55;8.88;;;5.75;;
73170;SDS011;61381;50.118;19.962;2023-04-29T08:14:57;12.95;;;5.97;;
73170;SDS011;61381;50.118;19.962;2023-04-29T08:19:58;10.02;;;5.70;;
73170;SDS011;61381;50.118;19.962;2023-04-29T08:24:59;8.75;;;5.70;;
73170;SDS011;61381;50.118;19.962;2023-04-29T08:30:02;8.88;;;6.13;;
73170;SDS011;61381;50.118;19.962;2023-04-29T08:35:03;8.65;;;6.00;;
73170;SDS011;61381;50.118;19.962;2023-04-29T08:40:05;8.02;;;5.57;;
73170;SDS011;61381;50.118;19.962;2023-04-29T08:45:09;9.07;;;5.32;;
73170;SDS011;61381;50.118;19.962;2023-04-29T08:50:12;9.88;;;4.18;;
73170;SDS011;61381;50.118;19.962;2023-04-29T08:55:13;7.15;;;4.18;;
73170;SDS011;61381;50.118;19.962;2023-04-29T09:00:16;5.38;;;3.55;;
73170;SDS011;61381;50.118;19.962;2023-04-29T09:05:18;6.10;;;3.58;;
73170;SDS011;61381;50.118;19.962;2023-04-29T09:10:20;5.47;;;3.40;;
73170;SDS011;61381;50.118;19.962;2023-04-29T09:15:22;7.57;;;3.90;;
73170;SDS011;61381;50.118;19.962;2023-04-29T09:20:27;5.72;;;3.38;;
73170;SDS011;61381;50.118;19.962;2023-04-29T09:25:29;4.82;;;3.25;;
73170;SDS011;61381;50.118;19.962;2023-04-29T09:30:32;5.18;;;3.83;;
73170;SDS011;61381;50.118;19.962;2023-04-29T09:35:45;5.68;;;3.80;;
73170;SDS011;61381;50.118;19.962;2023-04-29T09:40:46;5.80;;;3.60;;
73170;SDS011;61381;50.118;19.962;2023-04-29T09:45:48;5.57;;;3.40;;
73170;SDS011;61381;50.118;19.962;2023-04-29T09:50:58;5.78;;;3.70;;
73170;SDS011;61381;50.118;19.962;2023-04-29T09:56:00;6.35;;;3.97;;
73170;SDS011;61381;50.118;19.962;2023-04-29T10:01:03;6.85;;;4.10;;
73170;SDS011;61381;50.118;19.962;2023-04-29T10:06:05;6.60;;;3.83;;
73170;SDS011;61381;50.118;19.962;2023-04-29T10:11:07;7.90;;;4.35;;
73170;SDS011;61381;50.118;19.962;2023-04-29T10:16:18;6.45;;;3.75;;
73170;SDS011;61381;50.118;19.962;2023-04-29T10:21:27;6.70;;;4.38;;
73170;SDS011;61381;50.118;19.962;2023-04-29T10:26:29;5.18;;;3.42;;
73170;SDS011;61381;50.118;19.962;2023-04-29T10:31:31;5.35;;;3.92;;
73170;SDS011;61381;50.118;19.962;2023-04-29T10:36:34;7.32;;;3.72;;
73170;SDS011;61381;50.118;19.962;2023-04-29T10:41:41;7.28;;;3.58;;
73170;SDS011;61381;50.118;19.962;2023-04-29T10:46:45;8.32;;;4.43;;
73170;SDS011;61381;50.118;19.962;2023-04-29T10:51:46;5.97;;;3.58;;
73170;SDS011;61381;50.118;19.962;2023-04-29T10:56:47;5.38;;;3.90;;
73170;SDS011;61381;50.118;19.962;2023-04-29T11:01:51;6.70;;;4.07;;
73170;SDS011;61381;50.118;19.962;2023-04-29T11:06:53;5.40;;;3.75;;
73170;SDS011;61381;50.118;19.962;2023-04-29T11:11:56;7.03;;;3.88;;
73170;SDS011;61381;50.118;19.962;2023-04-29T11:17:00;5.22;;;4.20;;
73170;SDS011;61381;50.118;19.962;2023-04-29T11:27:28;7.32;;;4.68;;
73170;SDS011;61381;50.118;19.962;2023-04-29T11:32:33;6.82;;;4.70;;
73170;SDS011;61381;50.118;19.962;2023-04-29T11:37:35;8.80;;;5.60;;
73170;SDS011;61381;50.118;19.962;2023-04-29T11:42:39;7.78;;;5.43;;
73170;SDS011;61381;50.118;19.962;2023-04-29T11:47:43;6.75;;;4.55;;
73170;SDS011;61381;50.118;19.962;2023-04-29T11:52:45;6.70;;;4.25;;
73170;SDS011;61381;50.118;19.962;2023-04-29T11:57:47;7.50;;;4.68;;
73170;SDS011;61381;50.118;19.962;2023-04-29T12:02:50;6.10;;;4.03;;
73170;SDS011;61381;50.118;19.962;2023-04-29T12:07:51;6.10;;;4.72;;
73170;SDS011;61381;50.118;19.962;2023-04-29T12:12:54;6.53;;;5.40;;
73170;SDS011;61381;50.118;19.962;2023-04-29T12:17:56;8.13;;;3.95;;
73170;SDS011;61381;50.118;19.962;2023-04-29T12:23:09;4.53;;;3.83;;
73170;SDS011;61381;50.118;19.962;2023-04-29T12:28:11;7.43;;;4.80;;
73170;SDS011;61381;50.118;19.962;2023-04-29T12:33:18;8.15;;;4.22;;
73170;SDS011;61381;50.118;19.962;2023-04-29T12:38:20;6.75;;;4.03;;
73170;SDS011;61381;50.118;19.962;2023-04-29T12:43:25;7.88;;;4.40;;
73170;SDS011;61381;50.118;19.962;2023-04-29T12:48:29;9.27;;;5.38;;
73170;SDS011;61381;50.118;19.962;2023-04-29T12:53:31;11.40;;;4.93;;
73170;SDS011;61381;50.118;19.962;2023-04-29T12:58:32;5.82;;;3.75;;
73170;SDS011;61381;50.118;19.962;2023-04-29T13:03:34;5.00;;;4.28;;
73170;SDS011;61381;50.118;19.962;2023-04-29T13:08:35;5.30;;;3.83;;
73170;SDS011;61381;50.118;19.962;2023-04-29T13:13:36;6.40;;;4.53;;
73170;SDS011;61381;50.118;19.962;2023-04-29T13:18:39;6.60;;;4.63;;
73170;SDS011;61381;50.118;19.962;2023-04-29T13:23:40;7.80;;;4.20;;
73170;SDS011;61381;50.118;19.962;2023-04-29T13:28:41;6.03;;;4.30;;
73170;SDS011;61381;50.118;19.962;2023-04-29T13:33:43;7.50;;;4.65;;
73170;SDS011;61381;50.118;19.962;2023-04-29T13:38:44;7.53;;;4.63;;
73170;SDS011;61381;50.118;19.962;2023-04-29T13:43:45;8.00;;;4.30;;
73170;SDS011;61381;50.118;19.962;2023-04-29T13:48:48;6.55;;;4.22;;
73170;SDS011;61381;50.118;19.962;2023-04-29T13:53:49;9.32;;;4.82;;
73170;SDS011;61381;50.118;19.962;2023-04-29T13:58:50;6.32;;;4.53;;
73170;SDS011;61381;50.118;19.962;2023-04-29T14:03:52;6.20;;;4.45;;
73170;SDS011;61381;50.118;19.962;2023-04-29T14:08:53;6.15;;;4.50;;
73170;SDS011;61381;50.118;19.962;2023-04-29T14:13:54;7.97;;;4.40;;
73170;SDS011;61381;50.118;19.962;2023-04-29T14:18:56;6.93;;;4.00;;
73170;SDS011;61381;50.118;19.962;2023-04-29T14:23:58;8.00;;;4.95;;
73170;SDS011;61381;50.118;19.962;2023-04-29T14:28:59;6.90;;;4.22;;
73170;SDS011;61381;50.118;19.962;2023-04-29T14:34:01;6.43;;;4.30;;
73170;SDS011;61381;50.118;19.962;2023-04-29T14:39:02;10.45;;;6.20;;
73170;SDS011;61381;50.118;19.962;2023-04-29T14:44:03;8.48;;;5.38;;
73170;SDS011;61381;50.118;19.962;2023-04-29T14:49:06;10.25;;;5.47;;
73170;SDS011;61381;50.118;19.962;2023-04-29T14:54:07;9.48;;;5.35;;
73170;SDS011;61381;50.118;19.962;2023-04-29T14:59:08;8.23;;;6.60;;
73170;SDS011;61381;50.118;19.962;2023-04-29T15:04:10;7.60;;;5.32;;
73170;SDS011;61381;50.118;19.962;2023-04-29T15:09:11;10.07;;;6.72;;
73170;SDS011;61381;50.118;19.962;2023-04-29T15:14:12;11.65;;;6.43;;
73170;SDS011;61381;50.118;19.962;2023-04-29T15:19:15;8.18;;;5.55;;
73170;SDS011;61381;50.118;19.962;2023-04-29T15:24:16;10.50;;;5.90;;
73170;SDS011;61381;50.118;19.962;2023-04-29T15:29:17;10.50;;;6.22;;
73170;SDS011;61381;50.118;19.962;2023-04-29T15:34:19;9.40;;;6.00;;
73170;SDS011;61381;50.118;19.962;2023-04-29T15:39:20;8.73;;;5.95;;
73170;SDS011;61381;50.118;19.962;2023-04-29T15:44:21;10.10;;;5.22;;
73170;SDS011;61381;50.118;19.962;2023-04-29T15:49:23;9.63;;;5.93;;
73170;SDS011;61381;50.118;19.962;2023-04-29T15:54:24;12.60;;;5.90;;
73170;SDS011;61381;50.118;19.962;2023-04-29T15:59:25;10.57;;;6.88;;
73170;SDS011;61381;50.118;19.962;2023-04-29T16:04:28;9.00;;;5.78;;
73170;SDS011;61381;50.118;19.962;2023-04-29T16:09:29;10.20;;;6.30;;
73170;SDS011;61381;50.118;19.962;2023-04-29T16:14:30;12.00;;;6.45;;
73170;SDS011;61381;50.118;19.962;2023-04-29T16:19:32;10.90;;;6.05;;
73170;SDS011;61381;50.118;19.962;2023-04-29T16:24:33;9.02;;;6.07;;
73170;SDS011;61381;50.118;19.962;2023-04-29T16:29:34;9.45;;;5.85;;
73170;SDS011;61381;50.118;19.962;2023-04-29T16:34:37;10.15;;;6.50;;
73170;SDS011;61381;50.118;19.962;2023-04-29T16:39:38;9.77;;;5.53;;
73170;SDS011;61381;50.118;19.962;2023-04-29T16:44:39;9.40;;;7.50;;
73170;SDS011;61381;50.118;19.962;2023-04-29T16:49:41;9.48;;;6.28;;
73170;SDS011;61381;50.118;19.962;2023-04-29T16:54:43;12.40;;;7.85;;
73170;SDS011;61381;50.118;19.962;2023-04-29T16:59:43;12.80;;;7.15;;
73170;SDS011;61381;50.118;19.962;2023-04-29T17:04:46;15.68;;;9.27;;
73170;SDS011;61381;50.118;19.962;2023-04-29T17:09:47;17.98;;;10.10;;
73170;SDS011;61381;50.118;19.962;2023-04-29T17:14:48;15.60;;;8.60;;
73170;SDS011;61381;50.118;19.962;2023-04-29T17:19:51;28.10;;;15.30;;
73170;SDS011;61381;50.118;19.962;2023-04-29T17:24:52;21.80;;;11.25;;
73170;SDS011;61381;50.118;19.962;2023-04-29T17:29:53;22.48;;;12.57;;
73170;SDS011;61381;50.118;19.962;2023-04-29T17:34:55;31.75;;;16.67;;
73170;SDS011;61381;50.118;19.962;2023-04-29T17:39:56;25.05;;;15.07;;
73170;SDS011;61381;50.118;19.962;2023-04-29T17:44:57;35.33;;;19.50;;
73170;SDS011;61381;50.118;19.962;2023-04-29T17:50:00;38.33;;;22.05;;
73170;SDS011;61381;50.118;19.962;2023-04-29T17:55:01;50.63;;;28.33;;
73170;SDS011;61381;50.118;19.962;2023-04-29T18:00:02;36.35;;;19.75;;
73170;SDS011;61381;50.118;19.962;2023-04-29T18:05:06;35.75;;;19.02;;
73170;SDS011;61381;50.118;19.962;2023-04-29T18:10:08;48.63;;;28.33;;
73170;SDS011;61381;50.118;19.962;2023-04-29T18:15:09;43.08;;;24.25;;
73170;SDS011;61381;50.118;19.962;2023-04-29T18:20:12;61.13;;;31.10;;
73170;SDS011;61381;50.118;19.962;2023-04-29T18:25:13;83.43;;;33.30;;
73170;SDS011;61381;50.118;19.962;2023-04-29T18:30:14;68.40;;;30.65;;
73170;SDS011;61381;50.118;19.962;2023-04-29T18:35:17;69.07;;;26.52;;
73170;SDS011;61381;50.118;19.962;2023-04-29T18:40:18;56.22;;;30.17;;
73170;SDS011;61381;50.118;19.962;2023-04-29T18:45:19;52.85;;;23.23;;
73170;SDS011;61381;50.118;19.962;2023-04-29T18:50:21;48.25;;;24.23;;
73170;SDS011;61381;50.118;19.962;2023-04-29T18:55:22;48.80;;;25.42;;
73170;SDS011;61381;50.118;19.962;2023-04-29T19:00:23;68.78;;;34.67;;
73170;SDS011;61381;50.118;19.962;2023-04-29T19:05:25;62.17;;;29.90;;
73170;SDS011;61381;50.118;19.962;2023-04-29T19:10:27;50.95;;;26.25;;
73170;SDS011;61381;50.118;19.962;2023-04-29T19:15:28;64.32;;;29.55;;
73170;SDS011;61381;50.118;19.962;2023-04-29T19:20:30;57.47;;;27.52;;
73170;SDS011;61381;50.118;19.962;2023-04-29T19:25:31;48.60;;;24.77;;
73170;SDS011;61381;50.118;19.962;2023-04-29T19:30:32;41.97;;;20.98;;
73170;SDS011;61381;50.118;19.962;2023-04-29T19:35:35;44.20;;;23.85;;
73170;SDS011;61381;50.118;19.962;2023-04-29T19:40:36;43.67;;;22.30;;
73170;SDS011;61381;50.118;19.962;2023-04-29T19:45:37;43.42;;;23.65;;
73170;SDS011;61381;50.118;19.962;2023-04-29T19:50:39;47.63;;;25.02;;
73170;SDS011;61381;50.118;19.962;2023-04-29T19:55:41;47.33;;;24.83;;
73170;SDS011;61381;50.118;19.962;2023-04-29T20:00:42;50.15;;;24.20;;
73170;SDS011;61381;50.118;19.962;2023-04-29T20:05:44;52.85;;;23.83;;
73170;SDS011;61381;50.118;19.962;2023-04-29T20:10:45;47.70;;;23.55;;
73170;SDS011;61381;50.118;19.962;2023-04-29T20:15:46;54.83;;;26.55;;
73170;SDS011;61381;50.118;19.962;2023-04-29T20:20:49;59.28;;;26.70;;
73170;SDS011;61381;50.118;19.962;2023-04-29T20:25:50;59.75;;;28.00;;
73170;SDS011;61381;50.118;19.962;2023-04-29T20:30:51;65.15;;;33.42;;
73170;SDS011;61381;50.118;19.962;2023-04-29T20:35:54;55.47;;;27.98;;
73170;SDS011;61381;50.118;19.962;2023-04-29T20:40:55;55.95;;;28.83;;
73170;SDS011;61381;50.118;19.962;2023-04-29T20:45:56;60.58;;;29.60;;
73170;SDS011;61381;50.118;19.962;2023-04-29T20:50:58;55.05;;;26.88;;
73170;SDS011;61381;50.118;19.962;2023-04-29T20:55:59;47.78;;;24.05;;
73170;SDS011;61381;50.118;19.962;2023-04-29T21:01:00;46.40;;;21.90;;
73170;SDS011;61381;50.118;19.962;2023-04-29T21:06:04;46.95;;;24.73;;
73170;SDS011;61381;50.118;19.962;2023-04-29T21:11:05;47.38;;;22.55;;
73170;SDS011;61381;50.118;19.962;2023-04-29T21:16:06;49.20;;;23.88;;
73170;SDS011;61381;50.118;19.962;2023-04-29T21:21:08;48.88;;;22.77;;
73170;SDS011;61381;50.118;19.962;2023-04-29T21:26:09;50.92;;;23.55;;
73170;SDS011;61381;50.118;19.962;2023-04-29T21:31:10;42.10;;;21.30;;
73170;SDS011;61381;50.118;19.962;2023-04-29T21:36:13;40.22;;;20.13;;
73170;SDS011;61381;50.118;19.962;2023-04-29T21:41:16;36.38;;;19.75;;
73170;SDS011;61381;50.118;19.962;2023-04-29T21:46:18;43.15;;;19.88;;
73170;SDS011;61381;50.118;19.962;2023-04-29T21:51:21;50.22;;;23.15;;
73170;SDS011;61381;50.118;19.962;2023-04-29T21:56:22;51.80;;;23.48;;
73170;SDS011;61381;50.118;19.962;2023-04-29T22:01:23;49.35;;;22.50;;
73170;SDS011;61381;50.118;19.962;2023-04-29T22:06:26;42.33;;;20.65;;
73170;SDS011;61381;50.118;19.962;2023-04-29T22:11:27;44.85;;;22.23;;
73170;SDS011;61381;50.118;19.962;2023-04-29T22:16:29;45.65;;;19.95;;
73170;SDS011;61381;50.118;19.962;2023-04-29T22:21:31;42.22;;;21.08;;
73170;SDS011;61381;50.118;19.962;2023-04-29T22:26:33;52.78;;;24.08;;
73170;SDS011;61381;50.118;19.962;2023-04-29T22:31:34;50.63;;;23.08;;
73170;SDS011;61381;50.118;19.962;2023-04-29T22:36:36;58.58;;;25.60;;
73170;SDS011;61381;50.118;19.962;2023-04-29T22:41:37;50.08;;;24.65;;
73170;SDS011;61381;50.118;19.962;2023-04-29T22:46:38;52.65;;;24.48;;
73170;SDS011;61381;50.118;19.962;2023-04-29T22:51:40;54.58;;;25.25;;
73170;SDS011;61381;50.118;19.962;2023-04-29T22:56:41;51.22;;;26.20;;
73170;SDS011;61381;50.118;19.962;2023-04-29T23:01:42;49.40;;;21.98;;
73170;SDS011;61381;50.118;19.962;2023-04-29T23:06:45;49.72;;;24.05;;
73170;SDS011;61381;50.118;19.962;2023-04-29T23:11:46;54.10;;;24.70;;
73170;SDS011;61381;50.118;19.962;2023-04-29T23:16:47;52.50;;;23.50;;
73170;SDS011;61381;50.118;19.962;2023-04-29T23:21:49;56.60;;;25.05;;
73170;SDS011;61381;50.118;19.962;2023-04-29T23:26:50;50.28;;;23.40;;
73170;SDS011;61381;50.118;19.962;2023-04-29T23:31:51;52.13;;;25.85;;
73170;SDS011;61381;50.118;19.962;2023-04-29T23:36:53;50.88;;;22.42;;
73170;SDS011;61381;50.118;19.962;2023-04-29T23:41:54;50.13;;;24.35;;
73170;SDS011;61381;50.118;19.962;2023-04-29T23:46:55;47.80;;;22.30;;
73170;SDS011;61381;50.118;19.962;2023-04-29T23:51:58;49.95;;;24.02;;
73170;SDS011;61381;50.118;19.962;2023-04-29T23:56:59;47.47;;;22.45;;
